Backmoor, United Kingdom
Current Conditions -  °F | °C
As of 8:20 AM on Wednesday 26 Nov 2014 (Local Time) from EGCN Reporting Station
Overcast Overcast  
Wind Chill: 43°   Ceiling: 4600
Heat Index: 46°   Visibility: 6mi
Dew Point: 45°   Wind: 7mph
Humidity: 93%   Direction: 40°NE
Pressure: 29.97"   Gusts: NA
Location:  53.36°N, 1.43°W
Report Text: EGCN 260820Z 04006KT 9000 FEW019 SCT024 OVC046 08/07 Q1015
Loading
Personal Weather Stations






























Interactive Weather Map New forecast layout! Learn more

10-Day Weather Forecast

Advertisements
Track Severe Weather on mobile